sensor_id;sensor_type;location;lat;lon;timestamp;P1;durP1;ratioP1;P2;durP2;ratioP2
23163;SDS011;31429;42.674;23.350;2023-06-22T00:00:46;27.67;;;23.30;;
23163;SDS011;31429;42.674;23.350;2023-06-22T00:01:47;21.30;;;17.80;;
23163;SDS011;31429;42.674;23.350;2023-06-22T00:02:47;28.67;;;24.00;;
23163;SDS011;31429;42.674;23.350;2023-06-22T00:03:48;27.13;;;23.07;;
23163;SDS011;31429;42.674;23.350;2023-06-22T00:04:49;23.97;;;20.20;;
23163;SDS011;31429;42.674;23.350;2023-06-22T00:05:49;23.07;;;19.40;;
23163;SDS011;31429;42.674;23.350;2023-06-22T00:06:50;19.40;;;17.40;;
23163;SDS011;31429;42.674;23.350;2023-06-22T00:07:51;22.93;;;20.53;;
23163;SDS011;31429;42.674;23.350;2023-06-22T00:08:52;21.33;;;19.03;;
23163;SDS011;31429;42.674;23.350;2023-06-22T00:09:52;64.40;;;56.93;;
23163;SDS011;31429;42.674;23.350;2023-06-22T00:10:53;51.40;;;45.90;;
23163;SDS011;31429;42.674;23.350;2023-06-22T00:11:54;58.40;;;51.77;;
23163;SDS011;31429;42.674;23.350;2023-06-22T00:12:54;53.10;;;46.23;;
23163;SDS011;31429;42.674;23.350;2023-06-22T00:13:56;58.33;;;51.43;;
23163;SDS011;31429;42.674;23.350;2023-06-22T00:14:57;52.03;;;45.73;;
23163;SDS011;31429;42.674;23.350;2023-06-22T00:15:58;47.37;;;42.30;;
23163;SDS011;31429;42.674;23.350;2023-06-22T00:16:58;32.70;;;29.27;;
23163;SDS011;31429;42.674;23.350;2023-06-22T00:17:59;25.77;;;22.60;;
23163;SDS011;31429;42.674;23.350;2023-06-22T00:19:00;22.97;;;20.60;;
23163;SDS011;31429;42.674;23.350;2023-06-22T00:20:02;20.23;;;18.23;;
23163;SDS011;31429;42.674;23.350;2023-06-22T00:21:06;24.33;;;21.90;;
23163;SDS011;31429;42.674;23.350;2023-06-22T00:22:07;21.63;;;19.30;;
23163;SDS011;31429;42.674;23.350;2023-06-22T00:23:07;20.80;;;18.60;;
23163;SDS011;31429;42.674;23.350;2023-06-22T00:24:08;20.77;;;18.67;;
23163;SDS011;31429;42.674;23.350;2023-06-22T00:25:09;21.07;;;19.07;;
23163;SDS011;31429;42.674;23.350;2023-06-22T00:26:10;20.97;;;18.93;;
23163;SDS011;31429;42.674;23.350;2023-06-22T00:27:11;55.67;;;49.70;;
23163;SDS011;31429;42.674;23.350;2023-06-22T00:28:12;32.53;;;28.83;;
23163;SDS011;31429;42.674;23.350;2023-06-22T00:29:14;33.13;;;29.53;;
23163;SDS011;31429;42.674;23.350;2023-06-22T00:30:15;20.33;;;18.40;;
23163;SDS011;31429;42.674;23.350;2023-06-22T00:31:16;21.20;;;18.40;;
23163;SDS011;31429;42.674;23.350;2023-06-22T00:32:17;26.53;;;23.63;;
23163;SDS011;31429;42.674;23.350;2023-06-22T00:33:18;27.13;;;24.40;;
23163;SDS011;31429;42.674;23.350;2023-06-22T00:34:19;24.37;;;21.57;;
23163;SDS011;31429;42.674;23.350;2023-06-22T00:35:20;31.27;;;28.03;;
23163;SDS011;31429;42.674;23.350;2023-06-22T00:36:21;28.53;;;25.63;;
23163;SDS011;31429;42.674;23.350;2023-06-22T00:37:24;42.80;;;38.00;;
23163;SDS011;31429;42.674;23.350;2023-06-22T00:38:25;36.63;;;32.73;;
23163;SDS011;31429;42.674;23.350;2023-06-22T00:39:26;44.83;;;39.90;;
23163;SDS011;31429;42.674;23.350;2023-06-22T00:40:27;49.07;;;41.23;;
23163;SDS011;31429;42.674;23.350;2023-06-22T00:41:28;43.60;;;39.10;;
23163;SDS011;31429;42.674;23.350;2023-06-22T00:42:28;37.97;;;33.93;;
23163;SDS011;31429;42.674;23.350;2023-06-22T00:43:29;26.90;;;22.20;;
23163;SDS011;31429;42.674;23.350;2023-06-22T00:44:31;39.40;;;35.27;;
23163;SDS011;31429;42.674;23.350;2023-06-22T00:45:32;28.30;;;25.23;;
23163;SDS011;31429;42.674;23.350;2023-06-22T00:46:32;39.03;;;35.03;;
23163;SDS011;31429;42.674;23.350;2023-06-22T00:47:33;32.73;;;29.33;;
23163;SDS011;31429;42.674;23.350;2023-06-22T00:48:35;24.97;;;22.27;;
23163;SDS011;31429;42.674;23.350;2023-06-22T00:49:37;22.60;;;20.40;;
23163;SDS011;31429;42.674;23.350;2023-06-22T00:50:38;24.17;;;20.27;;
23163;SDS011;31429;42.674;23.350;2023-06-22T00:51:40;28.00;;;21.97;;
23163;SDS011;31429;42.674;23.350;2023-06-22T00:52:48;21.83;;;19.40;;
23163;SDS011;31429;42.674;23.350;2023-06-22T00:53:53;24.80;;;22.37;;
23163;SDS011;31429;42.674;23.350;2023-06-22T00:54:54;37.63;;;33.73;;
23163;SDS011;31429;42.674;23.350;2023-06-22T00:55:56;42.60;;;37.90;;
23163;SDS011;31429;42.674;23.350;2023-06-22T00:57:00;34.73;;;31.13;;
23163;SDS011;31429;42.674;23.350;2023-06-22T00:58:00;31.07;;;27.80;;
23163;SDS011;31429;42.674;23.350;2023-06-22T00:59:01;34.23;;;30.73;;
23163;SDS011;31429;42.674;23.350;2023-06-22T01:00:05;31.67;;;28.27;;
23163;SDS011;31429;42.674;23.350;2023-06-22T01:01:09;34.37;;;30.90;;
23163;SDS011;31429;42.674;23.350;2023-06-22T01:02:10;32.23;;;28.97;;
23163;SDS011;31429;42.674;23.350;2023-06-22T01:03:10;22.90;;;19.57;;
23163;SDS011;31429;42.674;23.350;2023-06-22T01:04:11;23.97;;;19.60;;
23163;SDS011;31429;42.674;23.350;2023-06-22T01:05:12;21.43;;;19.23;;
23163;SDS011;31429;42.674;23.350;2023-06-22T01:06:14;24.40;;;21.80;;
23163;SDS011;31429;42.674;23.350;2023-06-22T01:07:20;24.97;;;22.10;;
23163;SDS011;31429;42.674;23.350;2023-06-22T01:08:29;22.03;;;19.93;;
23163;SDS011;31429;42.674;23.350;2023-06-22T01:09:39;30.03;;;26.97;;
23163;SDS011;31429;42.674;23.350;2023-06-22T01:10:48;31.97;;;28.67;;
23163;SDS011;31429;42.674;23.350;2023-06-22T01:11:56;35.77;;;32.10;;
23163;SDS011;31429;42.674;23.350;2023-06-22T01:13:01;31.90;;;28.63;;
23163;SDS011;31429;42.674;23.350;2023-06-22T01:14:06;36.53;;;32.83;;
23163;SDS011;31429;42.674;23.350;2023-06-22T01:15:16;25.77;;;23.03;;
23163;SDS011;31429;42.674;23.350;2023-06-22T01:16:23;22.97;;;19.07;;
23163;SDS011;31429;42.674;23.350;2023-06-22T01:17:26;27.53;;;24.83;;
23163;SDS011;31429;42.674;23.350;2023-06-22T01:18:29;29.43;;;26.27;;
23163;SDS011;31429;42.674;23.350;2023-06-22T01:19:35;24.33;;;21.83;;
23163;SDS011;31429;42.674;23.350;2023-06-22T01:20:41;29.90;;;26.70;;
23163;SDS011;31429;42.674;23.350;2023-06-22T01:21:43;23.37;;;20.87;;
23163;SDS011;31429;42.674;23.350;2023-06-22T01:22:46;23.03;;;20.80;;
23163;SDS011;31429;42.674;23.350;2023-06-22T01:24:02;21.63;;;19.33;;
23163;SDS011;31429;42.674;23.350;2023-06-22T01:25:17;38.23;;;33.23;;
23163;SDS011;31429;42.674;23.350;2023-06-22T01:26:21;31.27;;;28.07;;
23163;SDS011;31429;42.674;23.350;2023-06-22T01:27:32;34.13;;;30.53;;
23163;SDS011;31429;42.674;23.350;2023-06-22T01:28:47;20.97;;;18.87;;
23163;SDS011;31429;42.674;23.350;2023-06-22T01:29:50;25.70;;;21.90;;
23163;SDS011;31429;42.674;23.350;2023-06-22T01:30:53;21.37;;;19.17;;
23163;SDS011;31429;42.674;23.350;2023-06-22T01:32:03;22.50;;;19.53;;
23163;SDS011;31429;42.674;23.350;2023-06-22T01:33:06;21.20;;;19.07;;
23163;SDS011;31429;42.674;23.350;2023-06-22T01:34:10;25.87;;;22.30;;
23163;SDS011;31429;42.674;23.350;2023-06-22T01:35:12;21.00;;;18.60;;
23163;SDS011;31429;42.674;23.350;2023-06-22T01:36:14;21.40;;;19.37;;
23163;SDS011;31429;42.674;23.350;2023-06-22T01:37:17;25.53;;;22.93;;
23163;SDS011;31429;42.674;23.350;2023-06-22T01:38:18;30.17;;;27.10;;
23163;SDS011;31429;42.674;23.350;2023-06-22T01:39:19;30.03;;;25.87;;
23163;SDS011;31429;42.674;23.350;2023-06-22T01:40:21;35.23;;;29.77;;
23163;SDS011;31429;42.674;23.350;2023-06-22T01:41:24;27.93;;;24.87;;
23163;SDS011;31429;42.674;23.350;2023-06-22T01:42:26;28.80;;;25.83;;
23163;SDS011;31429;42.674;23.350;2023-06-22T01:43:27;21.67;;;18.60;;
23163;SDS011;31429;42.674;23.350;2023-06-22T01:44:30;20.73;;;18.63;;
23163;SDS011;31429;42.674;23.350;2023-06-22T01:45:31;19.93;;;17.90;;
23163;SDS011;31429;42.674;23.350;2023-06-22T01:46:32;24.67;;;22.17;;
23163;SDS011;31429;42.674;23.350;2023-06-22T01:47:34;23.13;;;20.77;;
23163;SDS011;31429;42.674;23.350;2023-06-22T01:48:35;28.30;;;24.33;;
23163;SDS011;31429;42.674;23.350;2023-06-22T01:49:36;27.20;;;24.27;;
23163;SDS011;31429;42.674;23.350;2023-06-22T01:50:37;39.97;;;35.63;;
23163;SDS011;31429;42.674;23.350;2023-06-22T01:51:38;27.63;;;24.63;;
23163;SDS011;31429;42.674;23.350;2023-06-22T01:52:39;29.20;;;25.67;;
23163;SDS011;31429;42.674;23.350;2023-06-22T01:53:39;19.93;;;18.00;;
23163;SDS011;31429;42.674;23.350;2023-06-22T01:54:41;23.93;;;21.50;;
23163;SDS011;31429;42.674;23.350;2023-06-22T01:55:42;23.60;;;18.80;;
23163;SDS011;31429;42.674;23.350;2023-06-22T01:56:42;21.93;;;19.87;;
23163;SDS011;31429;42.674;23.350;2023-06-22T01:57:43;20.00;;;18.10;;
23163;SDS011;31429;42.674;23.350;2023-06-22T01:58:46;22.60;;;20.33;;
23163;SDS011;31429;42.674;23.350;2023-06-22T01:59:53;29.80;;;26.67;;
23163;SDS011;31429;42.674;23.350;2023-06-22T02:01:00;37.80;;;33.13;;
23163;SDS011;31429;42.674;23.350;2023-06-22T02:02:09;24.23;;;21.10;;
23163;SDS011;31429;42.674;23.350;2023-06-22T02:03:13;24.43;;;21.93;;
23163;SDS011;31429;42.674;23.350;2023-06-22T02:04:19;31.70;;;28.33;;
23163;SDS011;31429;42.674;23.350;2023-06-22T02:05:23;25.50;;;22.90;;
23163;SDS011;31429;42.674;23.350;2023-06-22T02:06:27;23.17;;;20.77;;
23163;SDS011;31429;42.674;23.350;2023-06-22T02:07:37;23.73;;;20.93;;
23163;SDS011;31429;42.674;23.350;2023-06-22T02:08:45;31.93;;;28.47;;
23163;SDS011;31429;42.674;23.350;2023-06-22T02:09:50;19.87;;;17.90;;
23163;SDS011;31429;42.674;23.350;2023-06-22T02:10:52;22.30;;;19.23;;
23163;SDS011;31429;42.674;23.350;2023-06-22T02:11:55;24.00;;;21.53;;
23163;SDS011;31429;42.674;23.350;2023-06-22T02:12:57;22.40;;;20.07;;
23163;SDS011;31429;42.674;23.350;2023-06-22T02:13:59;22.07;;;19.77;;
23163;SDS011;31429;42.674;23.350;2023-06-22T02:15:01;24.37;;;21.90;;
23163;SDS011;31429;42.674;23.350;2023-06-22T02:16:02;22.90;;;20.50;;
23163;SDS011;31429;42.674;23.350;2023-06-22T02:17:04;20.70;;;18.80;;
23163;SDS011;31429;42.674;23.350;2023-06-22T02:18:07;22.90;;;20.53;;
23163;SDS011;31429;42.674;23.350;2023-06-22T02:19:09;22.70;;;20.47;;
23163;SDS011;31429;42.674;23.350;2023-06-22T02:20:11;28.37;;;25.47;;
23163;SDS011;31429;42.674;23.350;2023-06-22T02:21:13;22.40;;;20.07;;
23163;SDS011;31429;42.674;23.350;2023-06-22T02:22:14;27.37;;;24.50;;
23163;SDS011;31429;42.674;23.350;2023-06-22T02:23:15;21.20;;;19.13;;
23163;SDS011;31429;42.674;23.350;2023-06-22T02:24:15;27.70;;;24.77;;
23163;SDS011;31429;42.674;23.350;2023-06-22T02:25:16;26.80;;;21.50;;
23163;SDS011;31429;42.674;23.350;2023-06-22T02:26:17;24.77;;;22.13;;
23163;SDS011;31429;42.674;23.350;2023-06-22T02:27:18;25.97;;;23.17;;
23163;SDS011;31429;42.674;23.350;2023-06-22T02:28:19;24.67;;;22.07;;
23163;SDS011;31429;42.674;23.350;2023-06-22T02:29:19;21.37;;;19.27;;
23163;SDS011;31429;42.674;23.350;2023-06-22T02:30:21;29.53;;;25.63;;
23163;SDS011;31429;42.674;23.350;2023-06-22T02:31:22;35.40;;;31.57;;
23163;SDS011;31429;42.674;23.350;2023-06-22T02:32:23;32.87;;;29.37;;
23163;SDS011;31429;42.674;23.350;2023-06-22T02:33:23;34.00;;;30.40;;
23163;SDS011;31429;42.674;23.350;2023-06-22T02:34:24;38.10;;;30.57;;
23163;SDS011;31429;42.674;23.350;2023-06-22T02:35:25;30.83;;;25.93;;
23163;SDS011;31429;42.674;23.350;2023-06-22T02:36:26;24.57;;;21.97;;
23163;SDS011;31429;42.674;23.350;2023-06-22T02:37:27;23.47;;;21.10;;
23163;SDS011;31429;42.674;23.350;2023-06-22T02:38:29;20.33;;;18.03;;
23163;SDS011;31429;42.674;23.350;2023-06-22T02:39:34;20.83;;;18.73;;
23163;SDS011;31429;42.674;23.350;2023-06-22T02:40:35;19.27;;;17.53;;
23163;SDS011;31429;42.674;23.350;2023-06-22T02:41:36;20.60;;;18.53;;
23163;SDS011;31429;42.674;23.350;2023-06-22T02:42:36;26.97;;;23.80;;
23163;SDS011;31429;42.674;23.350;2023-06-22T02:43:37;25.63;;;22.73;;
23163;SDS011;31429;42.674;23.350;2023-06-22T02:44:38;25.33;;;22.87;;
23163;SDS011;31429;42.674;23.350;2023-06-22T02:45:40;29.00;;;26.10;;
23163;SDS011;31429;42.674;23.350;2023-06-22T02:46:41;22.33;;;20.23;;
23163;SDS011;31429;42.674;23.350;2023-06-22T02:47:41;20.83;;;18.73;;
23163;SDS011;31429;42.674;23.350;2023-06-22T02:48:42;20.77;;;18.77;;
23163;SDS011;31429;42.674;23.350;2023-06-22T02:49:43;21.27;;;19.27;;
23163;SDS011;31429;42.674;23.350;2023-06-22T02:50:45;20.57;;;18.47;;
23163;SDS011;31429;42.674;23.350;2023-06-22T02:51:47;20.23;;;18.33;;
23163;SDS011;31429;42.674;23.350;2023-06-22T02:52:48;21.30;;;19.10;;
23163;SDS011;31429;42.674;23.350;2023-06-22T02:53:48;25.70;;;20.30;;
23163;SDS011;31429;42.674;23.350;2023-06-22T02:54:52;23.63;;;20.20;;
23163;SDS011;31429;42.674;23.350;2023-06-22T02:55:52;27.07;;;23.83;;
23163;SDS011;31429;42.674;23.350;2023-06-22T02:56:53;28.87;;;26.07;;
23163;SDS011;31429;42.674;23.350;2023-06-22T02:57:54;30.40;;;27.37;;
23163;SDS011;31429;42.674;23.350;2023-06-22T02:58:55;30.13;;;26.93;;
23163;SDS011;31429;42.674;23.350;2023-06-22T03:00:02;27.37;;;24.47;;
23163;SDS011;31429;42.674;23.350;2023-06-22T03:01:05;30.00;;;26.83;;
23163;SDS011;31429;42.674;23.350;2023-06-22T03:02:06;28.17;;;25.37;;
23163;SDS011;31429;42.674;23.350;2023-06-22T03:03:06;26.17;;;23.40;;
23163;SDS011;31429;42.674;23.350;2023-06-22T03:04:07;29.43;;;26.23;;
23163;SDS011;31429;42.674;23.350;2023-06-22T03:05:08;32.10;;;28.90;;
23163;SDS011;31429;42.674;23.350;2023-06-22T03:06:13;30.30;;;27.30;;
23163;SDS011;31429;42.674;23.350;2023-06-22T03:07:14;29.93;;;26.73;;
23163;SDS011;31429;42.674;23.350;2023-06-22T03:08:17;31.23;;;27.97;;
23163;SDS011;31429;42.674;23.350;2023-06-22T03:09:18;28.67;;;25.63;;
23163;SDS011;31429;42.674;23.350;2023-06-22T03:10:18;29.33;;;26.37;;
23163;SDS011;31429;42.674;23.350;2023-06-22T03:11:19;23.83;;;21.40;;
23163;SDS011;31429;42.674;23.350;2023-06-22T03:12:20;20.87;;;18.87;;
23163;SDS011;31429;42.674;23.350;2023-06-22T03:13:20;20.70;;;18.60;;
23163;SDS011;31429;42.674;23.350;2023-06-22T03:14:21;21.70;;;17.20;;
23163;SDS011;31429;42.674;23.350;2023-06-22T03:15:22;19.27;;;17.37;;
23163;SDS011;31429;42.674;23.350;2023-06-22T03:16:24;21.03;;;18.90;;
23163;SDS011;31429;42.674;23.350;2023-06-22T03:17:25;24.37;;;21.83;;
23163;SDS011;31429;42.674;23.350;2023-06-22T03:18:25;25.73;;;23.13;;
23163;SDS011;31429;42.674;23.350;2023-06-22T03:19:26;24.97;;;22.50;;
23163;SDS011;31429;42.674;23.350;2023-06-22T03:20:28;20.73;;;18.60;;
23163;SDS011;31429;42.674;23.350;2023-06-22T03:21:33;21.30;;;18.17;;
23163;SDS011;31429;42.674;23.350;2023-06-22T03:22:34;21.53;;;19.40;;
23163;SDS011;31429;42.674;23.350;2023-06-22T03:23:35;20.60;;;18.67;;
23163;SDS011;31429;42.674;23.350;2023-06-22T03:24:36;23.57;;;19.13;;
23163;SDS011;31429;42.674;23.350;2023-06-22T03:25:39;22.63;;;19.07;;
23163;SDS011;31429;42.674;23.350;2023-06-22T03:26:40;22.40;;;20.07;;
23163;SDS011;31429;42.674;23.350;2023-06-22T03:27:41;23.23;;;20.83;;
23163;SDS011;31429;42.674;23.350;2023-06-22T03:28:42;26.30;;;23.50;;
23163;SDS011;31429;42.674;23.350;2023-06-22T03:29:43;27.10;;;24.17;;
23163;SDS011;31429;42.674;23.350;2023-06-22T03:30:44;30.37;;;27.37;;
23163;SDS011;31429;42.674;23.350;2023-06-22T03:31:46;29.73;;;25.47;;
23163;SDS011;31429;42.674;23.350;2023-06-22T03:32:47;29.23;;;24.83;;
23163;SDS011;31429;42.674;23.350;2023-06-22T03:33:48;26.53;;;23.73;;
23163;SDS011;31429;42.674;23.350;2023-06-22T03:34:49;22.43;;;20.17;;
23163;SDS011;31429;42.674;23.350;2023-06-22T03:35:50;21.73;;;19.60;;
23163;SDS011;31429;42.674;23.350;2023-06-22T03:36:50;20.07;;;18.17;;
23163;SDS011;31429;42.674;23.350;2023-06-22T03:37:51;21.10;;;19.17;;
23163;SDS011;31429;42.674;23.350;2023-06-22T03:38:52;21.27;;;19.30;;
23163;SDS011;31429;42.674;23.350;2023-06-22T03:39:53;23.00;;;20.63;;
23163;SDS011;31429;42.674;23.350;2023-06-22T03:40:53;22.50;;;20.20;;
23163;SDS011;31429;42.674;23.350;2023-06-22T03:41:54;23.93;;;21.57;;
23163;SDS011;31429;42.674;23.350;2023-06-22T03:42:55;22.97;;;20.67;;
23163;SDS011;31429;42.674;23.350;2023-06-22T03:43:55;22.43;;;20.23;;
23163;SDS011;31429;42.674;23.350;2023-06-22T03:44:56;22.00;;;19.90;;
23163;SDS011;31429;42.674;23.350;2023-06-22T03:45:57;21.73;;;19.70;;
23163;SDS011;31429;42.674;23.350;2023-06-22T03:46:59;23.87;;;19.77;;
23163;SDS011;31429;42.674;23.350;2023-06-22T03:48:00;21.53;;;19.47;;
23163;SDS011;31429;42.674;23.350;2023-06-22T03:49:00;22.10;;;19.80;;
23163;SDS011;31429;42.674;23.350;2023-06-22T03:50:03;21.60;;;19.50;;
23163;SDS011;31429;42.674;23.350;2023-06-22T03:51:04;19.83;;;18.03;;
23163;SDS011;31429;42.674;23.350;2023-06-22T03:52:05;21.63;;;19.43;;
23163;SDS011;31429;42.674;23.350;2023-06-22T03:53:06;21.57;;;19.27;;
23163;SDS011;31429;42.674;23.350;2023-06-22T03:54:07;23.47;;;19.00;;
23163;SDS011;31429;42.674;23.350;2023-06-22T03:55:07;22.20;;;19.93;;
23163;SDS011;31429;42.674;23.350;2023-06-22T03:56:08;22.60;;;20.20;;
23163;SDS011;31429;42.674;23.350;2023-06-22T03:57:09;20.47;;;18.47;;
23163;SDS011;31429;42.674;23.350;2023-06-22T03:58:11;22.90;;;20.30;;
23163;SDS011;31429;42.674;23.350;2023-06-22T03:59:12;25.13;;;20.43;;
23163;SDS011;31429;42.674;23.350;2023-06-22T04:00:13;26.13;;;22.00;;
23163;SDS011;31429;42.674;23.350;2023-06-22T04:01:15;25.07;;;22.53;;
23163;SDS011;31429;42.674;23.350;2023-06-22T04:02:18;24.13;;;21.50;;
23163;SDS011;31429;42.674;23.350;2023-06-22T04:03:19;23.27;;;21.07;;
23163;SDS011;31429;42.674;23.350;2023-06-22T04:04:20;22.40;;;20.13;;
23163;SDS011;31429;42.674;23.350;2023-06-22T04:05:21;22.60;;;20.03;;
23163;SDS011;31429;42.674;23.350;2023-06-22T04:06:21;20.00;;;18.10;;
23163;SDS011;31429;42.674;23.350;2023-06-22T04:07:22;20.50;;;17.30;;
23163;SDS011;31429;42.674;23.350;2023-06-22T04:08:23;17.73;;;16.07;;
23163;SDS011;31429;42.674;23.350;2023-06-22T04:09:24;18.10;;;16.35;;
23163;SDS011;31429;42.674;23.350;2023-06-22T04:10:25;18.30;;;16.47;;
23163;SDS011;31429;42.674;23.350;2023-06-22T04:11:26;20.33;;;18.03;;
23163;SDS011;31429;42.674;23.350;2023-06-22T04:12:26;20.67;;;16.80;;
23163;SDS011;31429;42.674;23.350;2023-06-22T04:13:27;20.60;;;18.53;;
23163;SDS011;31429;42.674;23.350;2023-06-22T04:14:28;19.73;;;17.63;;
23163;SDS011;31429;42.674;23.350;2023-06-22T04:15:29;21.30;;;19.10;;
23163;SDS011;31429;42.674;23.350;2023-06-22T04:16:29;21.43;;;19.03;;
23163;SDS011;31429;42.674;23.350;2023-06-22T04:17:31;21.93;;;19.70;;
23163;SDS011;31429;42.674;23.350;2023-06-22T04:18:32;23.63;;;20.07;;
23163;SDS011;31429;42.674;23.350;2023-06-22T04:19:32;22.80;;;20.30;;
23163;SDS011;31429;42.674;23.350;2023-06-22T04:20:33;25.37;;;20.80;;
23163;SDS011;31429;42.674;23.350;2023-06-22T04:21:34;25.37;;;19.80;;
23163;SDS011;31429;42.674;23.350;2023-06-22T04:22:34;22.60;;;20.27;;
23163;SDS011;31429;42.674;23.350;2023-06-22T04:23:35;21.47;;;19.30;;
23163;SDS011;31429;42.674;23.350;2023-06-22T04:24:36;24.07;;;20.40;;
23163;SDS011;31429;42.674;23.350;2023-06-22T04:25:36;25.53;;;22.33;;
23163;SDS011;31429;42.674;23.350;2023-06-22T04:26:37;26.37;;;22.50;;
23163;SDS011;31429;42.674;23.350;2023-06-22T04:27:38;32.53;;;28.67;;
23163;SDS011;31429;42.674;23.350;2023-06-22T04:28:40;93.03;;;68.17;;
23163;SDS011;31429;42.674;23.350;2023-06-22T04:29:41;130.30;;;100.43;;
23163;SDS011;31429;42.674;23.350;2023-06-22T04:30:48;176.63;;;139.90;;
23163;SDS011;31429;42.674;23.350;2023-06-22T04:31:50;164.63;;;131.07;;
23163;SDS011;31429;42.674;23.350;2023-06-22T04:32:53;115.73;;;89.10;;
23163;SDS011;31429;42.674;23.350;2023-06-22T04:33:57;65.67;;;53.70;;
23163;SDS011;31429;42.674;23.350;2023-06-22T04:35:05;97.03;;;78.67;;
23163;SDS011;31429;42.674;23.350;2023-06-22T04:36:07;138.03;;;110.53;;
23163;SDS011;31429;42.674;23.350;2023-06-22T04:37:07;117.23;;;91.83;;
23163;SDS011;31429;42.674;23.350;2023-06-22T04:38:08;118.33;;;92.77;;
23163;SDS011;31429;42.674;23.350;2023-06-22T04:39:10;166.73;;;136.53;;
23163;SDS011;31429;42.674;23.350;2023-06-22T04:40:11;113.57;;;87.97;;
23163;SDS011;31429;42.674;23.350;2023-06-22T04:41:14;107.63;;;83.77;;
23163;SDS011;31429;42.674;23.350;2023-06-22T04:42:24;192.07;;;150.53;;
23163;SDS011;31429;42.674;23.350;2023-06-22T04:43:25;25.37;;;21.17;;
23163;SDS011;31429;42.674;23.350;2023-06-22T04:44:30;43.70;;;34.80;;
23163;SDS011;31429;42.674;23.350;2023-06-22T04:45:31;51.97;;;42.03;;
23163;SDS011;31429;42.674;23.350;2023-06-22T04:46:31;40.27;;;30.83;;
23163;SDS011;31429;42.674;23.350;2023-06-22T04:47:34;44.60;;;36.37;;
23163;SDS011;31429;42.674;23.350;2023-06-22T04:48:36;22.20;;;18.50;;
23163;SDS011;31429;42.674;23.350;2023-06-22T04:49:36;32.70;;;27.83;;
23163;SDS011;31429;42.674;23.350;2023-06-22T04:50:37;91.07;;;73.40;;
23163;SDS011;31429;42.674;23.350;2023-06-22T04:51:42;171.63;;;136.20;;
23163;SDS011;31429;42.674;23.350;2023-06-22T04:52:42;21.87;;;19.50;;
23163;SDS011;31429;42.674;23.350;2023-06-22T04:53:43;51.17;;;40.13;;
23163;SDS011;31429;42.674;23.350;2023-06-22T04:54:44;69.73;;;54.80;;
23163;SDS011;31429;42.674;23.350;2023-06-22T04:55:55;90.63;;;70.30;;
23163;SDS011;31429;42.674;23.350;2023-06-22T04:56:56;76.37;;;61.60;;
23163;SDS011;31429;42.674;23.350;2023-06-22T04:57:56;100.80;;;79.90;;
23163;SDS011;31429;42.674;23.350;2023-06-22T04:59:04;298.33;;;238.87;;
23163;SDS011;31429;42.674;23.350;2023-06-22T05:00:05;212.77;;;161.37;;
23163;SDS011;31429;42.674;23.350;2023-06-22T05:01:13;126.80;;;99.90;;
23163;SDS011;31429;42.674;23.350;2023-06-22T05:02:13;59.73;;;49.70;;
23163;SDS011;31429;42.674;23.350;2023-06-22T05:03:14;62.93;;;48.30;;
23163;SDS011;31429;42.674;23.350;2023-06-22T05:04:20;34.77;;;29.30;;
23163;SDS011;31429;42.674;23.350;2023-06-22T05:05:22;26.60;;;22.37;;
23163;SDS011;31429;42.674;23.350;2023-06-22T05:06:23;91.90;;;72.63;;
23163;SDS011;31429;42.674;23.350;2023-06-22T05:07:24;64.10;;;47.50;;
23163;SDS011;31429;42.674;23.350;2023-06-22T05:08:26;60.47;;;45.33;;
23163;SDS011;31429;42.674;23.350;2023-06-22T05:09:26;25.63;;;23.00;;
23163;SDS011;31429;42.674;23.350;2023-06-22T05:10:27;22.23;;;19.20;;
23163;SDS011;31429;42.674;23.350;2023-06-22T05:11:28;18.87;;;16.40;;
23163;SDS011;31429;42.674;23.350;2023-06-22T05:12:29;38.70;;;30.50;;
23163;SDS011;31429;42.674;23.350;2023-06-22T05:13:30;45.23;;;34.60;;
23163;SDS011;31429;42.674;23.350;2023-06-22T05:14:30;38.77;;;32.83;;
23163;SDS011;31429;42.674;23.350;2023-06-22T05:15:31;33.33;;;25.80;;
23163;SDS011;31429;42.674;23.350;2023-06-22T05:16:37;209.73;;;174.30;;
23163;SDS011;31429;42.674;23.350;2023-06-22T05:17:38;267.80;;;215.00;;
23163;SDS011;31429;42.674;23.350;2023-06-22T05:18:45;27.00;;;19.10;;
23163;SDS011;31429;42.674;23.350;2023-06-22T05:19:47;59.27;;;48.80;;
23163;SDS011;31429;42.674;23.350;2023-06-22T05:20:50;24.20;;;21.60;;
23163;SDS011;31429;42.674;23.350;2023-06-22T05:21:51;23.33;;;20.73;;
23163;SDS011;31429;42.674;23.350;2023-06-22T05:22:52;209.90;;;173.90;;
23163;SDS011;31429;42.674;23.350;2023-06-22T05:23:53;155.83;;;125.70;;
23163;SDS011;31429;42.674;23.350;2023-06-22T05:24:54;97.63;;;74.20;;
23163;SDS011;31429;42.674;23.350;2023-06-22T05:25:55;40.03;;;33.30;;
23163;SDS011;31429;42.674;23.350;2023-06-22T05:26:57;54.53;;;46.43;;
23163;SDS011;31429;42.674;23.350;2023-06-22T05:27:58;65.87;;;50.30;;
23163;SDS011;31429;42.674;23.350;2023-06-22T05:28:59;131.60;;;108.17;;
23163;SDS011;31429;42.674;23.350;2023-06-22T05:30:00;85.07;;;69.57;;
23163;SDS011;31429;42.674;23.350;2023-06-22T05:31:01;27.40;;;23.77;;
23163;SDS011;31429;42.674;23.350;2023-06-22T05:32:02;23.77;;;19.87;;
23163;SDS011;31429;42.674;23.350;2023-06-22T05:33:03;20.97;;;18.87;;
23163;SDS011;31429;42.674;23.350;2023-06-22T05:34:04;19.33;;;17.07;;
23163;SDS011;31429;42.674;23.350;2023-06-22T05:35:06;22.90;;;18.67;;
23163;SDS011;31429;42.674;23.350;2023-06-22T05:36:07;23.93;;;21.43;;
23163;SDS011;31429;42.674;23.350;2023-06-22T05:37:09;28.77;;;24.27;;
23163;SDS011;31429;42.674;23.350;2023-06-22T05:38:09;33.90;;;28.83;;
23163;SDS011;31429;42.674;23.350;2023-06-22T05:39:11;18.90;;;16.30;;
23163;SDS011;31429;42.674;23.350;2023-06-22T05:40:13;27.20;;;24.30;;
23163;SDS011;31429;42.674;23.350;2023-06-22T05:41:13;30.57;;;27.00;;
23163;SDS011;31429;42.674;23.350;2023-06-22T05:42:14;40.63;;;32.53;;
23163;SDS011;31429;42.674;23.350;2023-06-22T05:43:15;27.53;;;22.33;;
23163;SDS011;31429;42.674;23.350;2023-06-22T05:44:15;33.90;;;27.90;;
23163;SDS011;31429;42.674;23.350;2023-06-22T05:45:16;28.97;;;21.80;;
23163;SDS011;31429;42.674;23.350;2023-06-22T05:46:16;24.30;;;18.67;;
23163;SDS011;31429;42.674;23.350;2023-06-22T05:47:19;29.00;;;25.50;;
23163;SDS011;31429;42.674;23.350;2023-06-22T05:48:20;25.30;;;18.17;;
23163;SDS011;31429;42.674;23.350;2023-06-22T05:49:21;23.70;;;17.33;;
23163;SDS011;31429;42.674;23.350;2023-06-22T05:50:24;43.63;;;34.77;;
23163;SDS011;31429;42.674;23.350;2023-06-22T05:51:24;49.93;;;40.97;;
23163;SDS011;31429;42.674;23.350;2023-06-22T05:52:25;67.00;;;56.70;;
23163;SDS011;31429;42.674;23.350;2023-06-22T05:53:25;54.70;;;46.07;;
23163;SDS011;31429;42.674;23.350;2023-06-22T05:54:27;38.93;;;30.17;;
23163;SDS011;31429;42.674;23.350;2023-06-22T05:55:28;34.57;;;27.10;;
23163;SDS011;31429;42.674;23.350;2023-06-22T05:56:28;22.97;;;20.57;;
23163;SDS011;31429;42.674;23.350;2023-06-22T05:57:29;25.77;;;20.33;;